createdAt,value
2023-03-17T00:01:51.306Z,2.17
2023-03-17T00:04:20.458Z,2.25
2023-03-17T00:06:48.748Z,2.35
2023-03-17T00:09:18.207Z,5.30
2023-03-17T00:11:46.700Z,10.95
2023-03-17T00:14:14.859Z,2.97
2023-03-17T00:16:45.116Z,3.25
2023-03-17T00:19:17.890Z,3.63
2023-03-17T00:21:47.023Z,3.13
2023-03-17T00:24:15.416Z,3.72
2023-03-17T00:26:43.848Z,9.43
2023-03-17T00:29:11.526Z,6.43
2023-03-17T00:31:40.174Z,2.60
2023-03-17T00:34:08.453Z,5.15
2023-03-17T00:36:37.477Z,5.63
2023-03-17T00:39:07.800Z,5.72
2023-03-17T00:41:35.272Z,4.88
2023-03-17T00:44:03.470Z,6.90
2023-03-17T00:46:37.802Z,4.95
2023-03-17T00:51:46.720Z,4.57
2023-03-17T00:54:15.536Z,5.45
2023-03-17T00:56:44.710Z,3.45
2023-03-17T00:59:26.060Z,2.85
2023-03-17T01:01:53.749Z,4.90
2023-03-17T01:04:21.238Z,4.35
2023-03-17T01:06:50.370Z,3.90
2023-03-17T01:09:19.364Z,3.17
2023-03-17T01:11:48.525Z,6.63
2023-03-17T01:14:16.751Z,3.63
2023-03-17T01:16:44.728Z,3.63
2023-03-17T01:19:14.107Z,2.78
2023-03-17T01:21:42.470Z,3.63
2023-03-17T01:24:10.073Z,3.40
2023-03-17T01:26:38.026Z,4.32
2023-03-17T01:29:06.291Z,4.50
2023-03-17T01:31:33.870Z,4.40
2023-03-17T01:34:01.411Z,6.30
2023-03-17T01:36:28.967Z,7.28
2023-03-17T01:38:57.266Z,5.00
2023-03-17T01:41:25.094Z,2.80
2023-03-17T01:43:52.635Z,4.47
2023-03-17T01:46:32.358Z,3.25
2023-03-17T01:49:19.292Z,5.50
2023-03-17T01:52:00.913Z,4.38
2023-03-17T01:54:35.498Z,3.08
2023-03-17T01:57:10.573Z,3.75
2023-03-17T01:59:45.466Z,4.82
2023-03-17T02:02:17.951Z,2.25
2023-03-17T02:04:45.451Z,5.10
2023-03-17T02:07:14.732Z,3.47
2023-03-17T02:09:42.265Z,6.50
2023-03-17T02:12:10.884Z,3.53
2023-03-17T02:14:38.411Z,2.78
2023-03-17T02:17:06.421Z,3.45
2023-03-17T02:19:34.198Z,2.97
2023-03-17T02:22:02.559Z,4.55
2023-03-17T02:24:45.970Z,2.67
2023-03-17T02:27:20.238Z,3.20
2023-03-17T02:29:48.205Z,3.97
2023-03-17T02:32:18.678Z,2.88
2023-03-17T02:34:48.296Z,6.35
2023-03-17T02:37:16.232Z,6.22
2023-03-17T02:39:43.905Z,2.88
2023-03-17T02:42:12.677Z,4.35
2023-03-17T02:44:40.502Z,3.67
2023-03-17T02:47:08.917Z,2.05
2023-03-17T02:49:38.677Z,5.28
2023-03-17T02:52:07.190Z,4.93
2023-03-17T02:54:35.066Z,2.53
2023-03-17T02:57:02.655Z,2.78
2023-03-17T02:59:30.654Z,5.13
2023-03-17T03:01:58.248Z,4.88
2023-03-17T03:04:26.185Z,3.03
2023-03-17T03:06:54.642Z,4.35
2023-03-17T03:09:22.555Z,2.22
2023-03-17T03:11:50.051Z,2.78
2023-03-17T03:14:17.609Z,6.50
2023-03-17T03:16:45.394Z,5.65
2023-03-17T03:19:12.962Z,2.65
2023-03-17T03:21:40.679Z,3.65
2023-03-17T03:24:08.616Z,2.42
2023-03-17T03:26:36.237Z,3.70
2023-03-17T03:29:05.329Z,4.60
2023-03-17T03:31:32.891Z,3.10
2023-03-17T03:34:00.427Z,3.80
2023-03-17T03:36:28.551Z,3.80
2023-03-17T03:38:56.095Z,3.28
2023-03-17T03:41:23.620Z,3.25
2023-03-17T03:43:51.279Z,2.53
2023-03-17T03:46:18.820Z,2.33
2023-03-17T03:48:46.340Z,2.75
2023-03-17T03:51:13.916Z,7.22
2023-03-17T03:53:41.500Z,3.47
2023-03-17T03:56:09.137Z,3.85
2023-03-17T03:58:36.713Z,3.53
2023-03-17T04:01:09.488Z,7.03
2023-03-17T04:03:38.283Z,2.55
2023-03-17T04:06:06.877Z,6.28
2023-03-17T04:08:34.401Z,2.88
2023-03-17T04:11:02.024Z,5.10
2023-03-17T04:13:29.563Z,3.20
2023-03-17T04:15:57.225Z,3.75
2023-03-17T04:18:25.786Z,4.18
2023-03-17T04:20:53.362Z,6.95
2023-03-17T04:23:20.870Z,2.75
2023-03-17T04:25:48.777Z,4.82
2023-03-17T04:28:16.307Z,4.50
2023-03-17T04:30:44.062Z,3.08
2023-03-17T04:33:11.867Z,4.32
2023-03-17T04:35:39.506Z,6.40
2023-03-17T04:38:07.154Z,3.10
2023-03-17T04:40:34.677Z,3.33
2023-03-17T04:43:03.557Z,4.93
2023-03-17T04:45:31.204Z,5.28
2023-03-17T04:47:58.847Z,3.22
2023-03-17T04:50:26.517Z,4.32
2023-03-17T04:52:54.162Z,4.80
2023-03-17T04:55:21.823Z,5.32
2023-03-17T04:57:49.560Z,6.20
2023-03-17T05:00:18.216Z,2.53
2023-03-17T05:02:45.875Z,3.55
2023-03-17T05:05:13.694Z,2.50
2023-03-17T05:07:41.611Z,3.35
2023-03-17T05:10:09.820Z,3.75
2023-03-17T05:12:37.304Z,2.90
2023-03-17T05:15:05.457Z,3.95
2023-03-17T05:17:32.957Z,3.58
2023-03-17T05:20:00.527Z,5.20
2023-03-17T05:22:28.161Z,3.03
2023-03-17T05:24:55.644Z,4.07
2023-03-17T05:27:23.243Z,3.20
2023-03-17T05:29:50.773Z,5.38
2023-03-17T05:32:18.378Z,4.32
2023-03-17T05:34:46.384Z,3.08
2023-03-17T05:37:14.108Z,3.42
2023-03-17T05:39:42.087Z,2.97
2023-03-17T05:42:09.686Z,6.13
2023-03-17T05:44:37.180Z,3.03
2023-03-17T05:47:04.697Z,3.63
2023-03-17T05:49:32.285Z,4.25
2023-03-17T05:51:59.872Z,6.43
2023-03-17T05:54:27.667Z,2.90
2023-03-17T05:56:55.438Z,6.15
2023-03-17T05:59:23.064Z,3.72
2023-03-17T06:01:50.663Z,5.32
2023-03-17T06:04:18.185Z,3.55
2023-03-17T06:06:45.725Z,4.00
2023-03-17T06:09:13.289Z,3.13
2023-03-17T06:11:41.633Z,6.95
2023-03-17T06:14:09.134Z,4.15
2023-03-17T06:16:36.739Z,4.18
2023-03-17T06:19:04.340Z,3.55
2023-03-17T06:21:31.796Z,2.72
2023-03-17T06:23:59.304Z,6.68
2023-03-17T06:26:27.218Z,4.07
2023-03-17T06:28:55.040Z,4.25
2023-03-17T06:31:23.854Z,4.72
2023-03-17T06:33:51.585Z,3.65
2023-03-17T06:36:19.099Z,3.20
2023-03-17T06:38:47.123Z,6.93
2023-03-17T06:41:14.940Z,7.88
2023-03-17T06:43:42.633Z,3.78
2023-03-17T06:46:10.528Z,6.60
2023-03-17T06:48:38.296Z,3.88
2023-03-17T06:51:06.314Z,3.60
2023-03-17T06:53:33.936Z,5.13
2023-03-17T06:56:01.572Z,5.53
2023-03-17T06:58:29.324Z,4.57
2023-03-17T07:00:57.091Z,6.38
2023-03-17T07:03:25.796Z,4.90
2023-03-17T07:05:53.612Z,2.90
2023-03-17T07:08:22.040Z,3.75
2023-03-17T07:10:50.026Z,4.03
2023-03-17T07:13:17.609Z,3.53
2023-03-17T07:15:46.210Z,5.95
2023-03-17T07:18:13.759Z,6.00
2023-03-17T07:20:42.180Z,5.47
2023-03-17T07:23:16.163Z,4.88
2023-03-17T07:25:45.592Z,5.57
2023-03-17T07:28:13.143Z,8.55
2023-03-17T07:30:43.794Z,8.43
2023-03-17T07:33:11.307Z,4.55
2023-03-17T07:35:38.886Z,9.30
2023-03-17T07:38:06.515Z,5.50
2023-03-17T07:40:35.434Z,5.50
2023-03-17T07:43:04.599Z,4.65
2023-03-17T07:45:32.934Z,2.92
2023-03-17T07:48:01.336Z,6.68
2023-03-17T07:50:28.942Z,3.53
2023-03-17T07:52:56.664Z,4.72
2023-03-17T07:55:24.377Z,6.75
2023-03-17T07:57:52.865Z,4.00
2023-03-17T08:00:23.589Z,6.35
2023-03-17T08:03:06.985Z,5.63
2023-03-17T08:05:36.644Z,8.38
2023-03-17T08:08:05.238Z,6.22
2023-03-17T08:10:33.152Z,2.88
2023-03-17T08:13:01.810Z,6.25
2023-03-17T08:15:30.812Z,7.20
2023-03-17T08:17:58.380Z,8.35
2023-03-17T08:20:25.870Z,8.02
2023-03-17T08:22:53.443Z,7.38
2023-03-17T08:25:21.923Z,6.50
2023-03-17T08:27:50.033Z,3.88
2023-03-17T08:30:18.217Z,3.25
2023-03-17T08:32:46.493Z,3.28
2023-03-17T08:35:16.283Z,4.53
2023-03-17T08:37:44.888Z,5.28
2023-03-17T08:40:16.991Z,5.97
2023-03-17T08:42:45.723Z,4.18
2023-03-17T08:45:14.188Z,4.63
2023-03-17T08:47:41.820Z,4.80
2023-03-17T08:50:15.743Z,5.25
2023-03-17T08:52:43.616Z,5.22
2023-03-17T08:55:13.047Z,7.88
2023-03-17T08:57:40.662Z,4.80
2023-03-17T09:00:11.390Z,5.75
2023-03-17T09:02:44.991Z,8.38
2023-03-17T09:05:14.946Z,4.53
2023-03-17T09:07:43.640Z,4.32
2023-03-17T09:10:13.718Z,6.75
2023-03-17T09:12:41.534Z,3.65
2023-03-17T09:15:10.224Z,4.50
2023-03-17T09:17:38.116Z,5.07
2023-03-17T09:20:07.424Z,3.53
2023-03-17T09:22:35.074Z,4.15
2023-03-17T09:25:02.591Z,5.95
2023-03-17T09:27:30.136Z,4.63
2023-03-17T09:29:57.999Z,3.97
2023-03-17T09:32:25.821Z,6.30
2023-03-17T09:34:53.410Z,3.38
2023-03-17T09:37:21.344Z,3.58
2023-03-17T09:39:48.863Z,5.35
2023-03-17T09:42:23.356Z,2.90
2023-03-17T09:45:07.068Z,5.88
2023-03-17T09:47:48.040Z,4.38
2023-03-17T09:50:32.059Z,5.43
2023-03-17T09:53:03.974Z,4.60
2023-03-17T09:55:34.227Z,3.38
2023-03-17T09:58:03.432Z,4.57
2023-03-17T10:00:31.300Z,5.35
2023-03-17T10:03:01.537Z,4.47
2023-03-17T10:05:31.467Z,6.32
2023-03-17T10:08:31.632Z,5.55
2023-03-17T10:11:13.458Z,7.47
2023-03-17T10:13:54.785Z,3.15
2023-03-17T10:16:28.569Z,4.78
2023-03-17T10:19:07.101Z,6.35
2023-03-17T10:21:40.947Z,4.25
2023-03-17T10:24:11.374Z,4.10
2023-03-17T10:26:51.638Z,4.63
2023-03-17T10:29:22.723Z,4.53
2023-03-17T10:31:58.263Z,4.07
2023-03-17T10:34:32.295Z,3.70
2023-03-17T10:37:07.856Z,4.45
2023-03-17T10:39:45.784Z,7.00
2023-03-17T10:42:33.817Z,5.93
2023-03-17T10:45:29.863Z,6.22
2023-03-17T10:47:59.793Z,6.28
2023-03-17T10:50:33.517Z,5.07
2023-03-17T10:53:20.301Z,7.47
2023-03-17T10:55:52.897Z,4.80
2023-03-17T10:58:37.301Z,6.00
2023-03-17T11:01:36.746Z,4.60
2023-03-17T11:04:07.674Z,3.75
2023-03-17T11:06:42.893Z,7.63
2023-03-17T11:09:16.765Z,6.03
2023-03-17T11:11:49.851Z,4.35
2023-03-17T11:14:19.940Z,5.18
2023-03-17T11:16:55.914Z,4.25
2023-03-17T11:19:45.489Z,6.80
2023-03-17T11:22:23.572Z,3.97
2023-03-17T11:25:15.770Z,4.38
2023-03-17T11:28:06.842Z,6.28
2023-03-17T11:30:37.465Z,6.40
2023-03-17T11:33:05.692Z,4.57
2023-03-17T11:35:47.733Z,5.38
2023-03-17T11:38:20.930Z,7.72
2023-03-17T11:40:57.616Z,7.88
2023-03-17T11:43:31.406Z,7.90
2023-03-17T11:46:27.468Z,8.80
2023-03-17T11:49:36.909Z,4.90
2023-03-17T11:52:07.253Z,7.65
2023-03-17T11:54:41.808Z,11.27
2023-03-17T11:57:34.945Z,7.07
2023-03-17T12:00:22.739Z,5.60
2023-03-17T12:03:02.336Z,7.97
2023-03-17T12:05:31.574Z,5.80
2023-03-17T12:08:07.677Z,7.03
2023-03-17T12:10:43.838Z,5.72
2023-03-17T12:13:31.187Z,7.13
2023-03-17T12:16:15.696Z,7.88
2023-03-17T12:18:56.736Z,8.52
2023-03-17T12:21:34.280Z,5.80
2023-03-17T12:24:11.866Z,7.00
2023-03-17T12:26:56.025Z,5.70
2023-03-17T12:29:37.758Z,5.82
2023-03-17T12:32:17.298Z,7.85
2023-03-17T12:34:52.988Z,5.18
2023-03-17T12:37:22.919Z,5.65
2023-03-17T12:39:55.764Z,8.70
2023-03-17T12:42:36.620Z,3.90
2023-03-17T12:45:27.757Z,9.60
2023-03-17T12:48:13.158Z,4.68
2023-03-17T12:51:14.479Z,6.03
2023-03-17T12:53:48.820Z,5.85
2023-03-17T12:56:32.987Z,5.32
2023-03-17T12:59:07.362Z,6.60
2023-03-17T13:01:39.863Z,6.75
2023-03-17T13:04:13.691Z,6.65
2023-03-17T13:07:15.615Z,6.47
2023-03-17T13:10:10.052Z,6.80
2023-03-17T13:12:56.496Z,8.82
2023-03-17T13:15:24.110Z,8.73
2023-03-17T13:17:53.598Z,7.70
2023-03-17T13:20:21.737Z,7.32
2023-03-17T13:23:03.228Z,9.13
2023-03-17T13:25:31.232Z,7.88
2023-03-17T13:28:13.934Z,4.97
2023-03-17T13:30:41.473Z,5.65
2023-03-17T13:33:12.158Z,5.45
2023-03-17T13:35:46.029Z,6.05
2023-03-17T13:38:27.759Z,7.03
2023-03-17T13:41:15.683Z,5.97
2023-03-17T13:44:10.447Z,8.05
2023-03-17T13:46:39.297Z,5.07
2023-03-17T13:49:19.358Z,8.40
2023-03-17T13:52:09.603Z,6.40
2023-03-17T13:54:59.802Z,8.90
2023-03-17T13:57:28.910Z,7.00
2023-03-17T14:00:05.641Z,10.90
2023-03-17T14:02:36.461Z,4.93
2023-03-17T14:05:07.541Z,6.82
2023-03-17T14:07:53.557Z,5.40
2023-03-17T14:10:24.869Z,7.97
2023-03-17T14:13:31.746Z,7.07
2023-03-17T14:16:22.566Z,5.60
2023-03-17T14:18:58.931Z,6.68
2023-03-17T14:21:32.305Z,9.50
2023-03-17T14:24:18.419Z,4.97
2023-03-17T14:26:48.120Z,7.00
2023-03-17T14:29:18.691Z,6.72
2023-03-17T14:31:49.809Z,6.80
2023-03-17T14:34:17.463Z,5.03
2023-03-17T14:36:45.551Z,6.72
2023-03-17T14:39:26.904Z,6.35
2023-03-17T14:42:06.649Z,8.83
2023-03-17T14:44:38.906Z,6.88
2023-03-17T14:47:14.691Z,5.10
2023-03-17T14:49:42.508Z,5.28
2023-03-17T14:52:20.002Z,7.55
2023-03-17T14:54:52.081Z,3.53
2023-03-17T14:59:59.104Z,7.20
2023-03-17T15:02:34.158Z,4.60
2023-03-17T15:05:22.150Z,5.75
2023-03-17T15:07:49.714Z,7.78
2023-03-17T15:10:20.127Z,5.10
2023-03-17T15:12:48.734Z,5.47
2023-03-17T15:15:29.857Z,6.43
2023-03-17T15:18:00.655Z,7.10
2023-03-17T15:20:31.540Z,7.63
2023-03-17T15:23:24.816Z,5.43
2023-03-17T15:25:56.421Z,6.95
2023-03-17T15:28:26.755Z,10.82
2023-03-17T15:30:57.617Z,5.80
2023-03-17T15:33:34.553Z,9.48
2023-03-17T15:36:02.368Z,6.53
2023-03-17T15:38:30.334Z,5.32
2023-03-17T15:40:58.183Z,10.55
2023-03-17T15:43:25.907Z,6.32
2023-03-17T15:46:02.747Z,6.85
2023-03-17T15:48:33.279Z,6.90
2023-03-17T15:51:01.756Z,6.35
2023-03-17T15:53:30.118Z,10.27
2023-03-17T15:55:57.621Z,6.10
2023-03-17T15:58:25.961Z,6.32
2023-03-17T16:00:57.474Z,10.18
2023-03-17T16:03:33.966Z,6.85
2023-03-17T16:06:03.507Z,5.85
2023-03-17T16:08:31.415Z,5.70
2023-03-17T16:10:58.966Z,6.32
2023-03-17T16:13:26.495Z,7.18
2023-03-17T16:15:57.284Z,7.95
2023-03-17T16:18:34.253Z,12.65
2023-03-17T16:21:02.839Z,8.93
2023-03-17T16:23:33.628Z,6.97
2023-03-17T16:26:14.172Z,10.70
2023-03-17T16:28:44.498Z,11.95
2023-03-17T16:31:22.768Z,8.40
2023-03-17T16:33:51.508Z,7.05
2023-03-17T16:36:20.628Z,12.13
2023-03-17T16:38:49.129Z,8.55
2023-03-17T16:41:23.076Z,9.73
2023-03-17T16:43:59.723Z,7.18
2023-03-17T16:46:27.970Z,11.65
2023-03-17T16:48:56.162Z,10.40
2023-03-17T16:51:24.876Z,9.98
2023-03-17T16:53:52.567Z,12.18
2023-03-17T16:56:21.937Z,11.90
2023-03-17T16:58:50.223Z,8.65
2023-03-17T17:01:24.448Z,10.75
2023-03-17T17:03:52.143Z,9.88
2023-03-17T17:06:22.298Z,6.85
2023-03-17T17:08:51.127Z,8.52
2023-03-17T17:11:20.054Z,9.93
2023-03-17T17:13:49.933Z,12.77
2023-03-17T17:16:26.522Z,10.23
2023-03-17T17:18:54.286Z,10.05
2023-03-17T17:21:22.209Z,9.18
2023-03-17T17:23:52.689Z,11.10
2023-03-17T17:26:22.991Z,9.32
2023-03-17T17:28:50.812Z,6.18
2023-03-17T17:31:18.450Z,8.90
2023-03-17T17:33:46.100Z,8.30
2023-03-17T17:36:16.450Z,10.18
2023-03-17T17:38:44.816Z,7.57
2023-03-17T17:41:14.171Z,8.35
2023-03-17T17:43:42.120Z,8.73
2023-03-17T17:46:18.584Z,6.38
2023-03-17T17:48:46.616Z,6.22
2023-03-17T17:51:14.758Z,11.40
2023-03-17T17:53:42.373Z,11.60
2023-03-17T17:56:15.742Z,11.38
2023-03-17T17:58:44.316Z,15.25
2023-03-17T18:01:14.017Z,13.32
2023-03-17T18:03:42.989Z,15.30
2023-03-17T18:06:11.691Z,10.23
2023-03-17T18:08:40.007Z,11.77
2023-03-17T18:11:07.572Z,8.90
2023-03-17T18:13:36.174Z,13.63
2023-03-17T18:16:04.023Z,11.38
2023-03-17T18:18:32.580Z,10.18
2023-03-17T18:21:00.179Z,8.80
2023-03-17T18:23:28.095Z,12.40
2023-03-17T18:26:02.694Z,10.43
2023-03-17T18:28:30.699Z,9.75
2023-03-17T18:31:06.213Z,15.20
2023-03-17T18:33:34.347Z,10.73
2023-03-17T18:36:02.131Z,12.10
2023-03-17T18:38:29.675Z,9.43
2023-03-17T18:40:57.241Z,9.13
2023-03-17T18:43:24.842Z,14.48
2023-03-17T18:45:52.360Z,8.68
2023-03-17T18:48:20.342Z,10.90
2023-03-17T18:50:49.211Z,15.50
2023-03-17T18:53:16.958Z,12.30
2023-03-17T18:55:44.518Z,11.85
2023-03-17T18:58:12.797Z,15.10
2023-03-17T19:00:40.834Z,15.30
2023-03-17T19:03:08.466Z,25.95
2023-03-17T19:05:39.428Z,14.02
2023-03-17T19:08:07.700Z,19.05
2023-03-17T19:10:35.572Z,15.85
2023-03-17T19:13:04.443Z,13.80
2023-03-17T19:15:32.000Z,12.85
2023-03-17T19:17:59.509Z,14.85
2023-03-17T19:20:26.985Z,16.92
2023-03-17T19:22:54.505Z,20.42
2023-03-17T19:25:22.584Z,13.82
2023-03-17T19:27:50.370Z,14.23
2023-03-17T19:30:19.205Z,11.43
2023-03-17T19:32:46.682Z,16.17
2023-03-17T19:35:14.362Z,11.73
2023-03-17T19:37:41.907Z,12.50
2023-03-17T19:40:10.517Z,17.50
2023-03-17T19:42:38.096Z,16.40
2023-03-17T19:45:06.554Z,14.48
2023-03-17T19:47:34.176Z,12.98
2023-03-17T19:50:01.746Z,17.67
2023-03-17T19:52:29.282Z,17.05
2023-03-17T19:54:56.957Z,14.50
2023-03-17T19:57:24.464Z,16.70
2023-03-17T19:59:52.056Z,12.07
2023-03-17T20:02:20.535Z,13.27
2023-03-17T20:04:49.091Z,12.60
2023-03-17T20:07:16.846Z,15.73
2023-03-17T20:09:47.877Z,19.30
2023-03-17T20:12:15.752Z,11.00
2023-03-17T20:14:43.361Z,12.18
2023-03-17T20:17:12.050Z,12.30
2023-03-17T20:19:39.712Z,13.50
2023-03-17T20:22:08.656Z,13.65
2023-03-17T20:24:37.057Z,13.32
2023-03-17T20:27:05.322Z,15.65
2023-03-17T20:29:32.993Z,9.73
2023-03-17T20:32:02.018Z,15.07
2023-03-17T20:34:29.525Z,13.38
2023-03-17T20:36:57.006Z,16.90
2023-03-17T20:39:25.064Z,11.73
2023-03-17T20:41:53.111Z,12.57
2023-03-17T20:44:23.015Z,11.85
2023-03-17T20:46:53.045Z,14.05
2023-03-17T20:49:20.912Z,11.88
2023-03-17T20:51:49.069Z,11.68
2023-03-17T20:54:17.891Z,10.85
2023-03-17T20:56:45.625Z,14.63
2023-03-17T20:59:13.354Z,9.38
2023-03-17T21:01:42.603Z,10.73
2023-03-17T21:04:12.388Z,9.98
2023-03-17T21:06:41.385Z,11.98
2023-03-17T21:09:09.828Z,11.45
2023-03-17T21:11:38.619Z,11.80
2023-03-17T21:14:08.032Z,10.80
2023-03-17T21:16:37.157Z,9.30
2023-03-17T21:19:08.658Z,10.10
2023-03-17T21:21:37.114Z,12.15
2023-03-17T21:24:05.512Z,16.02
2023-03-17T21:26:33.401Z,12.73
2023-03-17T21:29:00.955Z,11.27
2023-03-17T21:31:28.603Z,8.40
2023-03-17T21:33:56.182Z,8.38
2023-03-17T21:36:23.755Z,13.73
2023-03-17T21:38:51.239Z,12.18
2023-03-17T21:41:23.695Z,11.43
2023-03-17T21:43:51.509Z,11.45
2023-03-17T21:46:18.985Z,12.48
2023-03-17T21:48:46.538Z,15.90
2023-03-17T21:51:14.045Z,12.93
2023-03-17T21:53:41.564Z,11.63
2023-03-17T21:56:11.974Z,9.23
2023-03-17T21:58:40.137Z,10.38
2023-03-17T22:01:09.111Z,13.27
2023-03-17T22:03:37.308Z,12.43
2023-03-17T22:06:05.518Z,9.85
2023-03-17T22:08:33.227Z,14.75
2023-03-17T22:11:00.698Z,10.52
2023-03-17T22:13:28.233Z,10.57
2023-03-17T22:15:59.660Z,16.73
2023-03-17T22:18:27.276Z,11.18
2023-03-17T22:20:56.290Z,12.43
2023-03-17T22:23:24.570Z,13.50
2023-03-17T22:25:52.580Z,11.43
2023-03-17T22:28:20.464Z,9.15
2023-03-17T22:30:49.063Z,10.27
2023-03-17T22:33:17.419Z,14.27
2023-03-17T22:35:45.419Z,11.23
2023-03-17T22:38:13.322Z,8.52
2023-03-17T22:40:41.425Z,16.45
2023-03-17T22:43:08.929Z,12.68
2023-03-17T22:45:36.446Z,10.40
2023-03-17T22:48:04.183Z,14.60
2023-03-17T22:50:31.933Z,9.18
2023-03-17T22:52:59.605Z,13.52
2023-03-17T22:55:27.164Z,13.00
2023-03-17T22:57:54.775Z,14.55
2023-03-17T23:00:22.962Z,12.02
2023-03-17T23:02:50.490Z,18.80
2023-03-17T23:05:18.401Z,18.80
2023-03-17T23:07:52.761Z,16.98
2023-03-17T23:10:24.498Z,13.48
2023-03-17T23:12:52.785Z,16.40
2023-03-17T23:15:21.132Z,16.00
2023-03-17T23:17:48.801Z,14.40
2023-03-17T23:20:16.638Z,12.82
2023-03-17T23:22:44.298Z,12.90
2023-03-17T23:25:13.628Z,23.63
2023-03-17T23:27:42.065Z,13.70
2023-03-17T23:30:12.818Z,14.25
2023-03-17T23:32:41.699Z,14.18
2023-03-17T23:35:11.105Z,13.85
2023-03-17T23:37:38.594Z,14.63
2023-03-17T23:40:07.380Z,15.10
2023-03-17T23:42:35.540Z,15.68
2023-03-17T23:45:04.138Z,13.00
2023-03-17T23:47:31.719Z,12.95
2023-03-17T23:49:59.343Z,15.95
2023-03-17T23:52:27.094Z,18.23
2023-03-17T23:54:54.767Z,16.88
2023-03-17T23:57:22.872Z,15.25
2023-03-17T23:59:50.468Z,19.17
